Time;durP1;ratioP1;P1;durP2;ratioP2;P2;SDS_P1;SDS_P2;PMS_P1;PMS_P2;Temp;Humidity;BMP_temperature;BMP_pressure;BME280_temperature;BME280_humidity;BME280_pressure;Samples;Min_cycle;Max_cycle;Signal;HPM_P1;HPM_P2
2022/04/24 00:01:24;;;;;;;3.00;2.70;;;;;;;8.26;100.00;97003.63;10404309;28;20049;-81
2022/04/24 00:06:27;;;;;;;3.00;2.80;;;;;;;8.14;100.00;96995.22;10399876;28;20056;-79
2022/04/24 00:11:31;;;;;;;3.08;2.80;;;;;;;8.06;100.00;96993.44;10421237;28;20075;-80
2022/04/24 00:16:35;;;;;;;3.30;3.00;;;;;;;8.01;100.00;96983.25;10420148;28;20064;-79
2022/04/24 00:21:39;;;;;;;3.15;2.85;;;;;;;7.93;100.00;96977.94;10417117;28;20126;-80
2022/04/24 00:26:42;;;;;;;3.13;2.83;;;;;;;7.87;100.00;96970.63;10412958;28;20056;-81
2022/04/24 00:31:47;;;;;;;5.85;3.00;;;;;;;7.82;100.00;96970.34;10422937;28;20474;-80
2022/04/24 00:36:50;;;;;;;3.28;3.00;;;;;;;7.79;100.00;96970.69;10418406;28;20041;-80
2022/04/24 00:41:53;;;;;;;3.42;2.97;;;;;;;7.75;100.00;96964.84;10420541;28;20051;-79
2022/04/24 00:47:02;;;;;;;4.15;3.22;;;;;;;7.69;100.00;96961.06;10416207;28;20041;-79
2022/04/24 00:52:06;;;;;;;3.30;3.00;;;;;;;7.66;100.00;96956.03;10425408;28;20438;-80
2022/04/24 00:57:10;;;;;;;3.17;2.95;;;;;;;7.61;100.00;96942.31;10404459;28;20441;-79
2022/04/24 01:02:15;;;;;;;4.45;3.17;;;;;;;7.56;100.00;96945.53;10417989;28;20100;-79
2022/04/24 01:07:18;;;;;;;3.40;3.10;;;;;;;7.51;100.00;96944.41;10423558;28;20056;-79
2022/04/24 01:12:21;;;;;;;2.97;2.78;;;;;;;7.47;100.00;96945.78;10422799;28;20855;-79
2022/04/24 01:17:26;;;;;;;3.47;3.17;;;;;;;7.39;100.00;96944.00;10421032;28;20042;-79
2022/04/24 01:22:30;;;;;;;3.60;3.30;;;;;;;7.31;100.00;96930.66;10404792;28;20164;-79
2022/04/24 01:27:34;;;;;;;4.80;3.10;;;;;;;7.27;100.00;96924.81;10426706;28;20084;-79
2022/04/24 01:32:38;;;;;;;3.83;3.47;;;;;;;7.18;100.00;96916.00;10415645;28;20151;-79
2022/04/24 01:37:44;;;;;;;3.47;3.17;;;;;;;7.15;100.00;96904.81;10247491;28;5001729;-79
2022/04/24 01:42:47;;;;;;;3.70;3.40;;;;;;;7.14;100.00;96895.09;10420504;28;20565;-79
2022/04/24 01:47:50;;;;;;;3.88;3.47;;;;;;;7.08;100.00;96877.91;10429169;28;20037;-79
2022/04/24 01:52:56;;;;;;;3.60;3.30;;;;;;;7.08;100.00;96885.94;10432687;28;20049;-78
2022/04/24 01:57:59;;;;;;;4.03;3.58;;;;;;;7.02;100.00;96883.97;10419118;28;20131;-78
2022/04/24 02:03:02;;;;;;;4.55;3.65;;;;;;;6.97;100.00;96884.50;10396861;28;20049;-79
2022/04/24 02:08:07;;;;;;;3.60;3.30;;;;;;;6.99;100.00;96884.31;10401660;28;20041;-79
2022/04/24 02:13:10;;;;;;;3.72;3.42;;;;;;;6.98;100.00;96882.66;10396563;28;20067;-80
2022/04/24 02:18:13;;;;;;;3.33;3.08;;;;;;;6.96;100.00;96874.81;10414262;28;20062;-80
2022/04/24 02:23:17;;;;;;;3.60;3.30;;;;;;;6.97;100.00;96887.19;10408729;28;20053;-79
2022/04/24 02:28:20;;;;;;;5.68;3.30;;;;;;;6.99;100.00;96885.16;10405596;28;20047;-80
2022/04/24 02:33:23;;;;;;;3.55;3.25;;;;;;;6.99;100.00;96889.69;10421991;28;20063;-80
2022/04/24 02:38:27;;;;;;;4.90;3.47;;;;;;;6.92;100.00;96878.84;10393106;28;20045;-80
2022/04/24 02:43:30;;;;;;;4.72;3.60;;;;;;;6.84;100.00;96881.56;10422594;28;20088;-80
2022/04/24 02:48:33;;;;;;;4.30;3.90;;;;;;;6.77;100.00;96892.97;10419524;28;20052;-80
2022/04/24 02:53:37;;;;;;;4.82;3.70;;;;;;;6.71;100.00;96877.63;10408803;28;21293;-79
2022/04/24 02:58:40;;;;;;;4.25;3.85;;;;;;;6.71;100.00;96869.59;10396898;28;20128;-79
2022/04/24 03:03:45;;;;;;;4.20;3.80;;;;;;;6.69;100.00;96862.75;10416864;28;20045;-79
2022/04/24 03:08:49;;;;;;;4.95;4.00;;;;;;;6.63;100.00;96857.06;10416265;28;20041;-79
2022/04/24 03:13:52;;;;;;;4.57;3.95;;;;;;;6.59;100.00;96857.59;10432986;28;20045;-79
2022/04/24 03:18:55;;;;;;;4.68;4.00;;;;;;;6.54;100.00;96874.19;10428697;28;20065;-79
2022/04/24 03:24:00;;;;;;;4.57;4.18;;;;;;;6.48;100.00;96873.03;10424513;28;20054;-78
2022/04/24 03:29:03;;;;;;;5.97;4.25;;;;;;;6.39;100.00;96862.53;10429155;28;20056;-79
2022/04/24 03:34:07;;;;;;;5.88;4.20;;;;;;;6.36;100.00;96857.53;10428769;28;20041;-79
2022/04/24 03:39:11;;;;;;;4.90;4.40;;;;;;;6.27;100.00;96870.13;10431044;28;20120;-80
2022/04/24 03:44:14;;;;;;;4.85;4.45;;;;;;;6.18;100.00;96858.59;10406205;28;20104;-80
2022/04/24 03:49:17;;;;;;;5.15;4.65;;;;;;;6.14;100.00;96863.47;10426774;28;20481;-80
2022/04/24 03:54:22;;;;;;;5.18;4.38;;;;;;;6.10;100.00;96869.34;10431804;28;21365;-80
2022/04/24 03:59:25;;;;;;;5.10;4.60;;;;;;;6.01;100.00;96871.19;10423660;28;20052;-80
2022/04/24 04:04:28;;;;;;;5.60;4.70;;;;;;;5.93;100.00;96873.84;10425452;28;20038;-79
2022/04/24 04:09:32;;;;;;;6.45;5.20;;;;;;;5.86;100.00;96874.50;10420505;28;20056;-79
2022/04/24 04:14:36;;;;;;;5.95;5.28;;;;;;;5.82;100.00;96877.69;10415815;28;20051;-79
2022/04/24 04:19:39;;;;;;;5.40;4.90;;;;;;;5.75;100.00;96882.88;10406503;28;20057;-79
2022/04/24 04:24:45;;;;;;;5.32;4.82;;;;;;;5.66;100.00;96887.38;10404402;28;20097;-80
2022/04/24 04:29:48;;;;;;;6.15;5.13;;;;;;;5.64;100.00;96880.56;10403114;28;20041;-80
2022/04/24 04:34:51;;;;;;;6.25;4.88;;;;;;;5.65;100.00;96864.34;10396291;28;20050;-80
2022/04/24 04:39:55;;;;;;;5.20;4.80;;;;;;;5.70;100.00;96879.91;10405107;28;20111;-80
2022/04/24 04:45:06;;;;;;;6.30;5.20;;;;;;;5.71;100.00;96876.19;10416354;28;20073;-80
2022/04/24 04:50:10;;;;;;;5.57;5.07;;;;;;;5.73;100.00;96876.03;10450331;28;20036;-80
2022/04/24 04:55:15;;;;;;;5.35;4.78;;;;;;;5.77;100.00;96869.34;10423268;28;20068;-79
2022/04/24 05:00:19;;;;;;;5.53;4.82;;;;;;;5.79;100.00;96870.88;10391830;28;20045;-79
2022/04/24 05:05:22;;;;;;;5.05;4.60;;;;;;;5.82;100.00;96869.69;10415907;28;20072;-80
2022/04/24 05:10:27;;;;;;;5.28;4.78;;;;;;;5.84;100.00;96883.72;10416042;28;20418;-79
2022/04/24 05:15:30;;;;;;;5.60;5.00;;;;;;;5.84;100.00;96871.16;10408450;28;20053;-79
2022/04/24 05:20:33;;;;;;;7.38;5.15;;;;;;;5.82;100.00;96877.69;10402958;28;20132;-81
2022/04/24 05:25:37;;;;;;;5.28;4.78;;;;;;;5.87;100.00;96883.38;10399963;28;20045;-81
2022/04/24 05:30:40;;;;;;;5.55;5.05;;;;;;;5.91;100.00;96891.88;10405357;28;20140;-81
2022/04/24 05:35:43;;;;;;;5.22;4.80;;;;;;;5.91;100.00;96882.03;10423092;28;20647;-80
2022/04/24 05:40:48;;;;;;;5.57;5.07;;;;;;;5.95;100.00;96893.19;10424380;28;20456;-81
2022/04/24 05:45:51;;;;;;;5.55;5.05;;;;;;;5.97;100.00;96881.34;10390044;28;20146;-79
2022/04/24 05:50:55;;;;;;;6.53;5.05;;;;;;;5.99;100.00;96878.50;10404640;28;20068;-79
2022/04/24 05:56:00;;;;;;;6.88;5.10;;;;;;;6.03;100.00;96879.88;10405105;28;20053;-79
2022/04/24 06:01:03;;;;;;;6.22;5.53;;;;;;;6.16;100.00;96884.66;10409390;28;20092;-81
2022/04/24 06:06:07;;;;;;;5.57;5.07;;;;;;;6.26;100.00;96884.50;10417822;28;20104;-79
2022/04/24 06:11:11;;;;;;;5.57;5.07;;;;;;;6.34;100.00;96871.06;10399946;28;20076;-81
2022/04/24 06:16:15;;;;;;;5.20;4.80;;;;;;;6.45;100.00;96867.22;10399176;28;20053;-81
2022/04/24 06:21:18;;;;;;;5.65;5.15;;;;;;;6.54;100.00;96876.00;10376066;28;20046;-81
2022/04/24 06:26:23;;;;;;;5.47;4.97;;;;;;;6.68;100.00;96872.59;10392108;28;20044;-81
2022/04/24 06:31:28;;;;;;;6.63;4.85;;;;;;;6.87;100.00;96865.97;10360165;28;21064;-80
2022/04/24 06:36:31;;;;;;;5.57;4.88;;;;;;;7.05;100.00;96862.22;10354435;28;20061;-80
2022/04/24 06:41:36;;;;;;;5.00;4.60;;;;;;;7.23;100.00;96865.41;10363332;28;20050;-80
2022/04/24 06:46:39;;;;;;;5.00;4.50;;;;;;;7.40;100.00;96866.13;10366110;28;20076;-80
2022/04/24 06:51:42;;;;;;;4.80;4.38;;;;;;;7.53;100.00;96865.50;10368614;28;20087;-79
2022/04/24 06:56:47;;;;;;;5.43;4.93;;;;;;;7.68;100.00;96854.84;10352553;28;20048;-80
2022/04/24 07:01:50;;;;;;;4.68;4.28;;;;;;;7.86;100.00;96851.81;10374165;28;20044;-80
2022/04/24 07:06:53;;;;;;;5.05;4.55;;;;;;;8.07;100.00;96854.78;10372478;28;20054;-80
2022/04/24 07:11:58;;;;;;;5.10;4.60;;;;;;;8.26;100.00;96854.25;10371287;28;20145;-80
2022/04/24 07:17:01;;;;;;;4.68;4.10;;;;;;;8.40;100.00;96846.38;10387076;28;20042;-79
2022/04/24 07:22:04;;;;;;;4.97;4.57;;;;;;;8.54;100.00;96861.66;10415334;28;20741;-80
2022/04/24 07:27:09;;;;;;;5.13;4.53;;;;;;;8.70;100.00;96852.53;10388431;28;20057;-78
2022/04/24 07:32:12;;;;;;;4.80;4.40;;;;;;;8.80;100.00;96849.56;10409379;28;21425;-78
2022/04/24 07:37:15;;;;;;;5.03;4.53;;;;;;;8.88;100.00;96846.75;10411616;28;20033;-78
2022/04/24 07:42:19;;;;;;;5.15;4.30;;;;;;;8.95;100.00;96844.16;10417951;28;20129;-79
2022/04/24 07:47:23;;;;;;;5.05;4.55;;;;;;;8.85;100.00;96832.88;10420049;28;20045;-79
2022/04/24 07:52:28;;;;;;;5.07;4.35;;;;;;;8.89;100.00;96835.00;10433033;28;20077;-80
2022/04/24 07:57:32;;;;;;;6.43;4.45;;;;;;;8.97;100.00;96839.44;10423235;28;20320;-78
2022/04/24 08:02:46;;;;;;;4.97;4.57;;;;;;;8.98;100.00;96846.47;10411026;28;20375;-80
2022/04/24 08:07:51;;;;;;;5.60;5.03;;;;;;;8.94;100.00;96851.41;10421590;28;20060;-79
2022/04/24 08:12:56;;;;;;;6.43;4.85;;;;;;;8.94;100.00;96846.03;10418978;28;20068;-80
2022/04/24 08:18:00;;;;;;;6.28;4.75;;;;;;;8.87;100.00;96850.50;10410819;28;20053;-79
2022/04/24 08:23:05;;;;;;;5.13;4.63;;;;;;;8.80;100.00;96854.94;10400494;28;20419;-79
2022/04/24 08:28:11;;;;;;;5.65;4.57;;;;;;;8.86;100.00;96858.72;10420121;28;20041;-79
2022/04/24 08:33:17;;;;;;;7.50;5.30;;;;;;;8.82;100.00;96855.59;10414031;28;20060;-79
2022/04/24 08:38:20;;;;;;;5.45;4.95;;;;;;;8.80;100.00;96860.31;10421345;28;20052;-80
2022/04/24 08:43:26;;;;;;;5.47;4.97;;;;;;;8.88;100.00;96862.06;10421936;28;20080;-79
2022/04/24 08:48:32;;;;;;;5.82;5.18;;;;;;;8.87;100.00;96871.97;10424117;28;20141;-80
2022/04/24 08:53:36;;;;;;;5.57;5.05;;;;;;;8.91;100.00;96875.94;10426807;28;20041;-79
2022/04/24 08:58:42;;;;;;;5.22;4.82;;;;;;;8.96;100.00;96877.22;10414533;28;20083;-79
2022/04/24 09:03:46;;;;;;;5.28;4.78;;;;;;;8.94;100.00;96880.09;10410961;28;20067;-79
2022/04/24 09:08:50;;;;;;;5.38;4.93;;;;;;;8.91;100.00;96875.13;10429837;28;20080;-80
2022/04/24 09:14:17;;;;;;;6.57;5.65;;;;;;;8.91;100.00;96878.63;10428034;28;20038;-81
2022/04/24 09:19:21;;;;;;;5.70;5.20;;;;;;;8.90;100.00;96871.59;10428870;28;20112;-79
2022/04/24 09:24:30;;;;;;;5.68;5.10;;;;;;;8.88;100.00;96878.16;10433102;28;20041;-78
2022/04/24 09:29:34;;;;;;;5.75;5.25;;;;;;;8.86;100.00;96881.06;10414775;28;20148;-78
2022/04/24 09:34:37;;;;;;;6.15;5.55;;;;;;;8.88;100.00;96889.72;10416536;28;20144;-79
2022/04/24 09:39:42;;;;;;;7.05;5.60;;;;;;;8.87;100.00;96882.72;10417457;28;20124;-79
2022/04/24 09:44:50;;;;;;;6.15;5.63;;;;;;;8.80;100.00;96881.78;10383994;28;20117;-79
2022/04/24 09:50:15;;;;;;;5.75;5.25;;;;;;;8.75;100.00;96873.50;10417737;28;20053;-81
2022/04/24 09:55:21;;;;;;;6.95;6.25;;;;;;;8.75;100.00;96871.63;10399611;28;20076;-79
2022/04/24 10:00:26;;;;;;;6.50;5.90;;;;;;;8.76;100.00;96886.72;10413911;28;20053;-78
2022/04/24 10:05:33;;;;;;;6.50;5.90;;;;;;;8.74;100.00;96885.25;10415102;28;20133;-80
2022/04/24 10:10:38;;;;;;;6.93;6.32;;;;;;;8.70;100.00;96895.50;10408006;28;20223;-81
2022/04/24 10:16:03;;;;;;;7.03;6.43;;;;;;;8.62;100.00;96901.84;10413096;28;20045;-80
2022/04/24 10:21:54;;;;;;;7.78;7.07;;;;;;;8.54;100.00;96899.22;10369956;28;20564;-80
2022/04/24 10:26:58;;;;;;;8.10;7.40;;;;;;;8.48;100.00;96905.34;10323566;28;20107;-78
2022/04/24 10:32:05;;;;;;;7.82;7.22;;;;;;;8.50;100.00;96910.53;10339657;28;20056;-79
2022/04/24 10:37:08;;;;;;;7.72;7.03;;;;;;;8.48;100.00;96914.22;10334618;28;20817;-82
2022/04/24 10:43:49;;;;;;;8.25;7.50;;;;;;;8.54;100.00;96914.50;10229921;28;20036;-81
2022/04/24 10:49:10;;;;;;;8.30;7.50;;;;;;;8.56;100.00;96913.28;10198425;28;20066;-81
2022/04/24 10:54:18;;;;;;;8.80;7.95;;;;;;;8.60;100.00;96903.00;10234442;28;20059;-82
2022/04/24 10:59:48;;;;;;;8.10;7.40;;;;;;;8.67;100.00;96914.69;10251015;28;20031;-82
2022/04/24 11:05:09;;;;;;;8.10;7.40;;;;;;;8.73;100.00;96913.09;10245044;29;20059;-80
2022/04/24 11:10:21;;;;;;;8.57;7.78;;;;;;;8.77;100.00;96917.91;10243803;28;20057;-79
2022/04/24 11:15:27;;;;;;;8.50;7.70;;;;;;;8.82;100.00;96905.78;10350183;28;20105;-79
2022/04/24 11:20:34;;;;;;;8.07;7.32;;;;;;;8.89;100.00;96915.56;10336860;28;20045;-79
2022/04/24 11:25:42;;;;;;;8.43;7.63;;;;;;;9.01;100.00;96915.09;10365785;28;20061;-79
2022/04/24 11:30:51;;;;;;;9.00;8.10;;;;;;;9.07;100.00;96922.41;10365438;28;20081;-80
2022/04/24 11:36:05;;;;;;;8.70;7.90;;;;;;;9.20;100.00;96919.88;10361902;28;20077;-80
2022/04/24 11:41:14;;;;;;;8.23;7.53;;;;;;;9.24;100.00;96921.13;10356543;28;20054;-80
2022/04/24 11:51:45;;;;;;;7.82;7.03;;;;;;;9.44;100.00;96931.28;10357491;28;20061;-79
2022/04/24 11:56:54;;;;;;;8.88;7.68;;;;;;;9.54;100.00;96930.94;10374729;28;20129;-79
2022/04/24 12:02:00;;;;;;;7.78;6.97;;;;;;;9.59;100.00;96933.91;10375592;28;20041;-79
2022/04/24 12:07:10;;;;;;;7.63;6.82;;;;;;;9.61;100.00;96936.41;10359546;28;20050;-81
2022/04/24 12:12:16;;;;;;;7.10;6.47;;;;;;;9.73;100.00;96934.03;10357446;28;20423;-77
2022/04/24 12:17:25;;;;;;;6.80;6.20;;;;;;;9.85;100.00;96938.69;10372494;28;20060;-80
2022/04/24 12:22:34;;;;;;;6.75;5.97;;;;;;;9.92;100.00;96937.94;10358130;28;20054;-80
2022/04/24 12:27:40;;;;;;;6.68;6.10;;;;;;;9.99;100.00;96938.81;10341168;28;20046;-80
2022/04/24 12:32:49;;;;;;;7.10;6.40;;;;;;;10.11;100.00;96942.66;10339055;28;20042;-79
2022/04/24 12:37:54;;;;;;;6.20;5.60;;;;;;;10.24;100.00;96936.53;10355338;28;20117;-79
2022/04/24 12:43:00;;;;;;;6.72;6.00;;;;;;;10.27;100.00;96938.81;10360119;28;20061;-80
2022/04/24 12:48:08;;;;;;;6.72;6.13;;;;;;;10.36;100.00;96923.38;10342741;28;20100;-79
2022/04/24 12:53:14;;;;;;;7.25;5.90;;;;;;;10.47;100.00;96925.53;10348400;28;20046;-79
2022/04/24 12:58:19;;;;;;;5.70;5.20;;;;;;;10.51;100.00;96914.38;10332273;28;20510;-79
2022/04/24 13:03:24;;;;;;;5.53;5.00;;;;;;;10.51;100.00;96917.06;10352611;28;20123;-79
2022/04/24 13:08:29;;;;;;;5.45;5.05;;;;;;;10.60;100.00;96902.41;10357507;28;20058;-78
2022/04/24 13:13:33;;;;;;;6.05;5.50;;;;;;;10.76;100.00;96899.38;10343175;28;20056;-80
2022/04/24 13:18:39;;;;;;;5.68;5.18;;;;;;;10.82;100.00;96915.78;10354838;28;20514;-80
2022/04/24 13:23:43;;;;;;;5.60;5.10;;;;;;;10.82;100.00;96905.00;10357066;28;20042;-81
2022/04/24 13:28:48;;;;;;;6.10;5.60;;;;;;;10.85;100.00;96910.81;10351597;28;20043;-80
2022/04/24 13:33:51;;;;;;;6.07;5.50;;;;;;;10.95;100.00;96905.06;10346068;28;20140;-78
2022/04/24 13:38:58;;;;;;;5.68;5.18;;;;;;;11.04;100.00;96903.84;10350173;28;20575;-80
2022/04/24 13:44:01;;;;;;;5.28;4.78;;;;;;;11.12;100.00;96904.69;10346199;28;20042;-80
2022/04/24 13:49:05;;;;;;;4.40;4.00;;;;;;;11.03;100.00;96909.44;10175183;28;5002515;-78
2022/04/24 13:54:12;;;;;;;6.15;3.70;;;;;;;11.07;100.00;96903.47;10350705;28;20050;-81
2022/04/24 13:59:16;;;;;;;3.20;2.90;;;;;;;10.87;100.00;96907.94;10349359;28;20128;-80
2022/04/24 14:04:21;;;;;;;3.55;3.25;;;;;;;10.72;100.00;96911.59;10374260;28;20116;-80
2022/04/24 14:09:25;;;;;;;3.60;3.30;;;;;;;10.44;100.00;96920.53;10394658;28;20042;-75
2022/04/24 14:14:31;;;;;;;4.45;3.90;;;;;;;10.37;100.00;96927.72;10356053;28;20037;-78
2022/04/24 14:19:35;;;;;;;3.60;3.35;;;;;;;10.20;100.00;96945.19;10349713;28;20534;-80
2022/04/24 14:24:39;;;;;;;3.83;3.53;;;;;;;10.13;100.00;96948.66;10356552;28;20120;-78
2022/04/24 14:29:42;;;;;;;3.50;3.20;;;;;;;9.97;100.00;96954.31;10353104;28;20046;-78
2022/04/24 14:34:46;;;;;;;3.58;3.28;;;;;;;9.96;100.00;96958.03;10352588;28;20064;-78
2022/04/24 14:39:50;;;;;;;3.60;3.30;;;;;;;9.94;100.00;96960.94;10353338;28;20054;-77
2022/04/24 14:44:53;;;;;;;3.90;3.50;;;;;;;9.96;100.00;96966.94;10346398;28;20092;-77
2022/04/24 15:00:40;;;;;;;3.30;3.00;;;;;;;9.96;100.00;96961.56;10349460;28;20069;-79
2022/04/24 15:05:43;;;;;;;3.10;2.80;;;;;;;9.95;100.00;96965.28;10351489;28;20120;-77
2022/04/24 15:10:48;;;;;;;2.67;2.47;;;;;;;9.86;100.00;96955.69;10352902;28;20078;-78
2022/04/24 15:15:51;;;;;;;3.40;2.25;;;;;;;9.77;100.00;96959.50;10353083;28;20048;-78
2022/04/24 15:20:59;;;;;;;2.35;2.10;;;;;;;9.68;100.00;96965.03;10355401;28;20045;-77
2022/04/24 15:26:04;;;;;;;3.10;2.00;;;;;;;9.67;100.00;96962.53;10336696;28;20043;-78
2022/04/24 15:31:07;;;;;;;2.20;1.98;;;;;;;9.54;100.00;96980.19;10352727;28;20048;-78
2022/04/24 15:36:10;;;;;;;2.17;1.98;;;;;;;9.50;100.00;96978.91;10340401;28;20045;-78
2022/04/24 15:41:17;;;;;;;2.20;2.00;;;;;;;9.40;100.00;96997.19;10355684;28;20121;-77
2022/04/24 15:46:20;;;;;;;2.30;2.10;;;;;;;9.37;100.00;96998.41;10351576;28;20088;-77
2022/04/24 15:51:24;;;;;;;2.20;2.00;;;;;;;9.35;100.00;96994.25;10349926;28;20065;-77
2022/04/24 15:56:29;;;;;;;2.58;2.38;;;;;;;9.32;100.00;97008.88;10349092;28;20125;-77
2022/04/24 16:01:32;;;;;;;2.30;2.10;;;;;;;9.28;100.00;97009.44;10349494;28;20050;-78
2022/04/24 16:06:35;;;;;;;2.13;2.00;;;;;;;9.24;100.00;97006.31;10351643;28;20108;-79
2022/04/24 16:11:40;;;;;;;2.33;2.13;;;;;;;9.21;100.00;97007.53;10360994;28;20058;-78
2022/04/24 16:16:43;;;;;;;2.53;2.28;;;;;;;9.23;100.00;97004.63;10358335;28;20050;-79
2022/04/24 16:21:46;;;;;;;2.10;1.90;;;;;;;9.20;100.00;97013.91;10375865;28;20049;-80
2022/04/24 16:26:50;;;;;;;2.70;2.28;;;;;;;9.22;100.00;97005.66;10379641;28;20866;-80
2022/04/24 16:31:54;;;;;;;2.78;2.40;;;;;;;9.19;100.00;97004.19;10368682;28;20042;-80
2022/04/24 16:36:57;;;;;;;2.60;2.40;;;;;;;9.19;100.00;97008.72;10365799;28;20115;-80
2022/04/24 16:42:01;;;;;;;3.00;2.30;;;;;;;9.15;100.00;97002.88;10362442;28;20073;-83
2022/04/24 16:47:05;;;;;;;2.58;2.38;;;;;;;9.13;100.00;97009.47;10363233;28;20042;-80
2022/04/24 17:02:52;;;;;;;2.70;2.47;;;;;;;9.03;100.00;97018.66;10363367;28;20103;-82
2022/04/24 17:07:57;;;;;;;2.65;2.45;;;;;;;9.03;100.00;97026.72;10359267;28;20168;-79
2022/04/24 17:13:05;;;;;;;3.33;2.50;;;;;;;8.98;100.00;97025.59;10359426;28;20042;-83
2022/04/24 17:18:10;;;;;;;2.50;2.30;;;;;;;8.90;100.00;97026.53;10385366;28;20083;-81
2022/04/24 17:23:15;;;;;;;2.60;2.40;;;;;;;8.88;100.00;97028.56;10397165;28;20085;-81
2022/04/24 17:28:28;;;;;;;2.70;2.50;;;;;;;8.86;100.00;97047.56;10344237;28;20066;-81
2022/04/24 17:33:33;;;;;;;2.97;2.58;;;;;;;8.85;100.00;97055.78;10332173;28;20042;-80
2022/04/24 17:38:36;;;;;;;2.95;2.70;;;;;;;8.82;100.00;97048.94;10333797;28;20046;-80
2022/04/24 17:43:42;;;;;;;3.08;2.78;;;;;;;8.80;100.00;97064.38;10336851;28;20144;-80
2022/04/24 17:48:45;;;;;;;2.92;2.72;;;;;;;8.81;100.00;97063.38;10353700;28;20251;-80
2022/04/24 17:53:48;;;;;;;2.70;2.50;;;;;;;8.78;100.00;97063.72;10340260;28;20050;-81
2022/04/24 17:58:53;;;;;;;3.38;2.75;;;;;;;8.78;100.00;97063.72;10357980;28;20050;-80
2022/04/24 18:03:56;;;;;;;2.70;2.50;;;;;;;8.73;100.00;97068.84;10342163;28;20054;-80
2022/04/24 18:09:00;;;;;;;3.22;2.83;;;;;;;8.69;100.00;97078.25;10356637;28;20119;-82
2022/04/24 18:14:05;;;;;;;3.08;2.78;;;;;;;8.66;100.00;97086.66;10356799;28;20153;-81
2022/04/24 18:19:08;;;;;;;3.03;2.72;;;;;;;8.63;100.00;97099.47;10357926;28;20073;-79
2022/04/24 18:24:12;;;;;;;3.08;2.85;;;;;;;8.64;100.00;97098.41;10355463;28;20148;-80
2022/04/24 18:29:16;;;;;;;4.05;3.30;;;;;;;8.63;100.00;97104.84;10341103;28;20110;-80
2022/04/24 18:34:20;;;;;;;4.40;3.70;;;;;;;8.62;100.00;97115.75;10353048;28;20042;-81
2022/04/24 18:39:24;;;;;;;4.38;3.90;;;;;;;8.58;100.00;97126.00;10355930;28;20144;-80
2022/04/24 18:44:29;;;;;;;4.32;3.00;;;;;;;8.54;100.00;97131.91;10345949;28;20492;-80
2022/04/24 18:49:32;;;;;;;3.40;3.10;;;;;;;8.52;100.00;97137.47;10357175;28;20038;-80
2022/04/24 18:54:36;;;;;;;3.53;3.13;;;;;;;8.49;100.00;97145.88;10355298;28;20099;-82
2022/04/24 18:59:42;;;;;;;3.50;3.20;;;;;;;8.44;100.00;97156.28;10352220;28;20084;-80
2022/04/24 19:15:32;;;;;;;3.88;3.50;;;;;;;8.37;100.00;97176.81;10357774;28;20076;-80
2022/04/24 19:20:38;;;;;;;4.25;3.67;;;;;;;8.35;100.00;97190.38;10350490;28;20078;-79
2022/04/24 19:25:41;;;;;;;4.30;3.90;;;;;;;8.35;100.00;97195.75;10351012;28;20501;-78
2022/04/24 19:30:47;;;;;;;4.32;4.00;;;;;;;8.33;100.00;97197.78;10339755;28;20052;-80
2022/04/24 19:35:52;;;;;;;4.88;4.47;;;;;;;8.33;100.00;97203.97;10357144;28;20136;-79
2022/04/24 19:40:55;;;;;;;4.80;4.38;;;;;;;8.31;100.00;97206.00;10343862;28;20050;-79
2022/04/24 19:46:01;;;;;;;5.55;4.60;;;;;;;8.29;100.00;97212.56;10352452;28;20050;-79
2022/04/24 19:51:04;;;;;;;4.57;4.07;;;;;;;8.23;100.00;97219.47;10341088;28;20053;-79
2022/04/24 19:56:08;;;;;;;5.28;4.53;;;;;;;8.21;100.00;97224.19;10364042;28;20050;-80
2022/04/24 20:01:13;;;;;;;4.57;4.20;;;;;;;8.21;100.00;97229.53;10357670;28;20055;-82
2022/04/24 20:06:19;;;;;;;5.82;4.55;;;;;;;8.21;100.00;97236.75;10371635;28;20125;-81
2022/04/24 20:11:22;;;;;;;5.38;4.30;;;;;;;8.21;100.00;97242.94;10363933;28;20125;-81
2022/04/24 20:16:27;;;;;;;4.80;4.40;;;;;;;8.16;100.00;97239.97;10343740;28;20052;-81
2022/04/24 20:21:30;;;;;;;4.53;4.22;;;;;;;8.14;100.00;97242.81;10338809;28;20054;-81
2022/04/24 20:26:34;;;;;;;5.22;4.60;;;;;;;8.13;100.00;97241.16;10343629;28;21468;-81
2022/04/24 20:31:44;;;;;;;5.22;4.72;;;;;;;8.13;100.00;97245.69;10360133;28;20038;-79
2022/04/24 20:36:48;;;;;;;6.13;4.75;;;;;;;8.12;100.00;97252.06;10389614;28;20045;-80
2022/04/24 20:41:51;;;;;;;4.90;4.50;;;;;;;8.12;100.00;97246.69;10340636;28;20138;-80
2022/04/24 20:46:56;;;;;;;5.10;4.60;;;;;;;8.07;100.00;97249.06;10356088;28;20074;-81
2022/04/24 20:51:59;;;;;;;5.57;4.90;;;;;;;8.07;100.00;97257.09;10346455;28;20499;-81
2022/04/24 20:57:03;;;;;;;5.07;4.68;;;;;;;8.01;100.00;97262.16;10339803;28;20056;-80
2022/04/24 21:02:12;;;;;;;4.55;4.22;;;;;;;8.02;100.00;97266.53;10352318;28;20147;-79
2022/04/24 21:07:16;;;;;;;4.50;4.10;;;;;;;8.02;100.00;97265.66;10347782;28;20498;-80
2022/04/24 21:12:19;;;;;;;5.15;4.75;;;;;;;8.01;100.00;97269.34;10344238;28;20042;-80
2022/04/24 21:17:23;;;;;;;4.95;4.55;;;;;;;7.99;100.00;97266.84;10331965;28;20042;-80
2022/04/24 21:22:26;;;;;;;4.57;4.18;;;;;;;7.97;100.00;97268.88;10332628;28;20523;-80
2022/04/24 21:27:29;;;;;;;4.55;4.15;;;;;;;7.97;100.00;97268.88;10348414;28;20051;-80
2022/04/24 21:32:34;;;;;;;5.00;4.60;;;;;;;7.94;100.00;97274.56;10345503;28;20514;-81
2022/04/24 21:37:37;;;;;;;5.00;4.60;;;;;;;7.96;100.00;97267.19;10333755;28;20061;-82
2022/04/24 21:42:40;;;;;;;5.25;4.80;;;;;;;7.98;100.00;97275.91;10185327;28;5001647;-80
2022/04/24 21:47:44;;;;;;;4.97;4.50;;;;;;;7.99;100.00;97277.59;10336168;28;20077;-80
2022/04/24 21:52:47;;;;;;;5.20;4.80;;;;;;;8.02;100.00;97284.44;10340702;28;20050;-81
2022/04/24 21:57:52;;;;;;;5.22;4.72;;;;;;;7.97;100.00;97279.59;10348697;28;20042;-80
2022/04/24 22:08:17;;;;;;;5.63;5.18;;;;;;;8.00;100.00;97289.13;10333870;28;20049;-82
2022/04/24 22:13:21;;;;;;;5.55;5.03;;;;;;;7.97;100.00;97293.00;10350959;28;20438;-82
2022/04/24 22:18:25;;;;;;;6.28;5.68;;;;;;;7.86;100.00;97288.88;10330177;28;20422;-80
2022/04/24 22:28:49;;;;;;;7.22;6.63;;;;;;;7.79;100.00;97311.16;10342726;28;20528;-81
2022/04/24 22:33:53;;;;;;;7.20;6.60;;;;;;;7.77;100.00;97323.91;10338607;28;20053;-81
2022/04/24 22:38:56;;;;;;;8.23;7.43;;;;;;;7.64;100.00;97333.31;10329572;28;20537;-81
2022/04/24 22:43:59;;;;;;;8.50;7.70;;;;;;;7.61;100.00;97322.91;10339690;28;20077;-81
2022/04/24 22:49:03;;;;;;;7.55;6.85;;;;;;;7.66;100.00;97320.56;10350216;28;20872;-81
2022/04/24 22:54:07;;;;;;;8.40;7.60;;;;;;;7.59;100.00;97308.03;10327789;28;20590;-80
2022/04/24 22:59:11;;;;;;;8.80;8.10;;;;;;;7.58;100.00;97317.91;10347865;28;20910;-80
2022/04/24 23:04:15;;;;;;;8.02;7.30;;;;;;;7.57;100.00;97302.84;10346944;28;20109;-81
2022/04/24 23:09:18;;;;;;;8.10;7.40;;;;;;;7.54;100.00;97301.31;10340909;28;20461;-81
2022/04/24 23:14:21;;;;;;;8.15;7.35;;;;;;;7.54;100.00;97306.69;10341324;28;20054;-81
2022/04/24 23:19:25;;;;;;;9.10;8.27;;;;;;;7.50;100.00;97309.88;10351490;28;20148;-79
2022/04/24 23:24:31;;;;;;;9.25;8.40;;;;;;;7.48;100.00;97318.09;10167147;28;5001695;-82
2022/04/24 23:29:42;;;;;;;9.10;8.20;;;;;;;7.53;100.00;97309.53;10336257;28;20585;-81
2022/04/24 23:34:50;;;;;;;8.48;7.78;;;;;;;7.50;100.00;97310.72;10343141;28;20069;-80
2022/04/24 23:39:53;;;;;;;9.10;8.30;;;;;;;7.52;100.00;97313.22;10334854;28;20188;-81
2022/04/24 23:44:56;;;;;;;9.05;8.15;;;;;;;7.53;100.00;97321.06;10346034;28;20041;-80
2022/04/24 23:50:01;;;;;;;8.50;7.70;;;;;;;7.56;100.00;97317.25;10382151;28;20050;-81
2022/04/24 23:55:04;;;;;;;8.52;7.75;;;;;;;7.59;100.00;97327.59;10360032;28;20046;-80
